createdAt,value
2018-01-19T15:26:46.686Z,9.27
2018-01-19T15:29:15.040Z,9.67
2018-01-19T15:31:43.328Z,11.60
2018-01-19T15:34:11.860Z,8.80
2018-01-19T15:36:40.372Z,7.03
2018-01-19T15:39:08.664Z,10.63
2018-01-19T15:41:37.040Z,7.13
2018-01-19T15:44:05.328Z,9.90
2018-01-19T15:46:33.725Z,10.50
2018-01-19T15:49:02.069Z,10.17
2018-01-19T15:51:33.041Z,7.67
2018-01-19T15:54:01.344Z,8.27
2018-01-19T15:56:30.409Z,13.80
2018-01-19T15:58:58.720Z,12.03
2018-01-19T16:01:27.780Z,10.10
2018-01-19T16:03:56.056Z,8.20
2018-01-19T16:06:25.277Z,13.23
2018-01-19T16:08:53.558Z,8.20
2018-01-19T16:11:21.847Z,10.37
2018-01-19T16:13:50.940Z,15.43
2018-01-19T16:16:19.242Z,9.00
2018-01-19T16:18:48.299Z,15.00
2018-01-19T16:21:16.753Z,10.00
2018-01-19T16:23:45.558Z,9.23
2018-01-19T16:26:14.273Z,8.30
2018-01-19T16:28:43.356Z,9.93
2018-01-19T16:31:12.369Z,18.90
2018-01-19T16:33:41.511Z,13.80
2018-01-19T16:36:11.150Z,14.87
2018-01-19T16:38:39.502Z,11.77
2018-01-19T16:41:07.794Z,10.27
2018-01-19T16:43:36.079Z,13.57
2018-01-19T16:46:04.380Z,17.70
2018-01-19T16:48:32.824Z,19.83
2018-01-19T16:51:01.932Z,18.30
2018-01-19T16:53:30.254Z,18.73
2018-01-19T16:55:59.315Z,19.33
2018-01-19T16:58:27.635Z,18.43
2018-01-19T17:00:56.716Z,17.10
2018-01-19T17:03:27.250Z,14.60
2018-01-19T17:05:56.335Z,10.83
2018-01-19T17:08:25.191Z,10.70
2018-01-19T17:10:53.520Z,9.03
2018-01-19T17:13:22.657Z,9.50
2018-01-19T17:15:51.897Z,10.63
2018-01-19T17:18:20.780Z,8.20
2018-01-19T17:20:49.531Z,8.30
2018-01-19T17:23:17.903Z,6.90
2018-01-19T17:25:47.248Z,8.53
2018-01-19T17:28:15.532Z,11.23
2018-01-19T17:30:44.417Z,11.07
2018-01-19T17:33:12.735Z,13.77
2018-01-19T17:35:41.839Z,6.03
2018-01-19T17:38:10.122Z,7.47
2018-01-19T17:40:38.400Z,7.13
2018-01-19T17:43:07.529Z,5.50
2018-01-19T17:45:35.826Z,5.83
2018-01-19T17:48:04.128Z,9.07
2018-01-19T17:50:33.173Z,5.47
2018-01-19T17:53:01.696Z,5.90
2018-01-19T17:55:30.004Z,6.63
2018-01-19T17:57:58.289Z,8.17
2018-01-19T18:00:26.584Z,8.90
2018-01-19T18:02:54.869Z,7.70
2018-01-19T18:05:23.142Z,10.43
2018-01-19T18:07:51.444Z,6.67
2018-01-19T18:10:20.620Z,5.13
2018-01-19T18:12:49.109Z,7.17
2018-01-19T18:15:17.387Z,5.70
2018-01-19T18:17:45.669Z,7.87
2018-01-19T18:20:14.757Z,6.90
2018-01-19T18:22:43.030Z,7.13
2018-01-19T18:25:11.304Z,4.87
2018-01-19T18:27:39.596Z,6.90
2018-01-19T18:30:07.884Z,38.23
2018-01-19T18:32:36.484Z,33.73
2018-01-19T18:35:04.775Z,25.33
2018-01-19T18:37:33.072Z,29.70
2018-01-19T18:40:02.518Z,30.20
2018-01-19T18:42:30.794Z,33.27
2018-01-19T18:44:59.088Z,34.40
2018-01-19T18:47:27.393Z,28.97
2018-01-19T18:49:56.463Z,34.13
2018-01-19T18:52:24.759Z,40.80
2018-01-19T18:54:53.847Z,38.70
2018-01-19T18:57:22.211Z,33.07
2018-01-19T18:59:50.518Z,39.67
2018-01-19T19:02:18.953Z,28.13
2018-01-19T19:04:47.720Z,28.30
2018-01-19T19:07:16.029Z,35.10
2018-01-19T19:09:44.344Z,26.23
2018-01-19T19:12:12.649Z,31.23
2018-01-19T19:14:40.973Z,24.47
2018-01-19T19:17:09.574Z,40.97
2018-01-19T19:19:37.983Z,28.13
2018-01-19T19:22:07.649Z,22.57
2018-01-19T19:24:35.947Z,24.93
2018-01-19T19:27:04.236Z,27.37
2018-01-19T19:29:33.355Z,23.50
2018-01-19T19:32:02.579Z,27.67
2018-01-19T19:34:31.311Z,23.33
2018-01-19T19:36:59.613Z,17.70
2018-01-19T19:39:28.681Z,21.87
2018-01-19T19:41:56.972Z,25.87
2018-01-19T19:44:26.037Z,27.70
2018-01-19T19:46:54.354Z,30.17
2018-01-19T19:49:23.732Z,26.90
2018-01-19T19:51:52.015Z,18.27
2018-01-19T19:54:20.614Z,23.83
2018-01-19T19:56:49.732Z,21.23
2018-01-19T19:59:18.479Z,16.30
2018-01-19T20:01:46.987Z,19.93
2018-01-19T20:04:16.658Z,22.03
2018-01-19T20:06:44.969Z,25.10
2018-01-19T20:09:13.278Z,23.53
2018-01-19T20:11:41.785Z,31.53
2018-01-19T20:14:10.074Z,16.33
2018-01-19T20:16:38.572Z,17.03
2018-01-19T20:19:07.353Z,24.77
2018-01-19T20:21:36.224Z,18.00
2018-01-19T20:24:04.532Z,13.17
2018-01-19T20:26:33.155Z,22.20
2018-01-19T20:29:02.228Z,20.30
2018-01-19T20:31:30.531Z,18.40
2018-01-19T20:33:58.829Z,15.23
2018-01-19T20:36:27.149Z,16.43
2018-01-19T20:38:55.448Z,18.63
2018-01-19T20:41:24.861Z,19.33
2018-01-19T20:43:54.047Z,15.60
2018-01-19T20:46:22.368Z,15.90
2018-01-19T20:48:50.816Z,18.07
2018-01-19T20:51:19.900Z,17.63
2018-01-19T20:53:48.487Z,16.63
2018-01-19T20:56:16.794Z,19.87
2018-01-19T20:58:45.118Z,19.80
2018-01-19T21:01:13.439Z,17.03
2018-01-19T21:03:43.217Z,23.97
2018-01-19T21:06:11.572Z,22.47
2018-01-19T21:08:39.969Z,16.50
2018-01-19T21:11:08.591Z,14.30
2018-01-19T21:13:37.899Z,13.13
2018-01-19T21:16:07.173Z,20.63
2018-01-19T21:18:35.585Z,16.77
2018-01-19T21:21:03.916Z,12.40
2018-01-19T21:23:32.730Z,14.30
2018-01-19T21:26:01.528Z,15.43
2018-01-19T21:28:30.588Z,19.13
2018-01-19T21:30:58.885Z,11.97
2018-01-19T21:33:27.296Z,18.60
2018-01-19T21:35:56.432Z,14.20
2018-01-19T21:38:24.734Z,13.27
2018-01-19T21:40:53.208Z,16.40
2018-01-19T21:43:21.888Z,13.00
2018-01-19T21:45:50.725Z,12.17
2018-01-19T21:48:20.080Z,13.27
2018-01-19T21:50:49.056Z,12.57
2018-01-19T21:53:17.369Z,14.60
2018-01-19T21:55:45.678Z,17.70
2018-01-19T21:58:16.380Z,14.67
2018-01-19T22:00:44.684Z,19.57
2018-01-19T22:03:13.737Z,12.73
2018-01-19T22:05:42.229Z,16.10
2018-01-19T22:08:10.508Z,14.77
2018-01-19T22:10:38.805Z,12.60
2018-01-19T22:13:07.167Z,14.13
2018-01-19T22:15:35.768Z,14.07
2018-01-19T22:18:04.095Z,11.47
2018-01-19T22:20:32.384Z,12.13
2018-01-19T22:23:01.346Z,15.60
2018-01-19T22:25:30.487Z,12.50
2018-01-19T22:27:58.771Z,70.27
2018-01-19T22:30:27.549Z,78.40
2018-01-19T22:32:56.617Z,122.57
2018-01-19T22:35:25.659Z,110.77
2018-01-19T22:37:53.971Z,115.50
2018-01-19T22:40:23.044Z,81.60
2018-01-19T22:42:51.643Z,96.97
2018-01-19T22:45:20.098Z,85.53
2018-01-19T22:47:48.393Z,73.73
2018-01-19T22:50:16.785Z,84.50
2018-01-19T22:52:45.081Z,78.80
2018-01-19T22:55:14.328Z,86.07
2018-01-19T22:57:42.612Z,82.17
2018-01-19T23:00:11.802Z,69.77
2018-01-19T23:02:40.331Z,76.30
2018-01-19T23:05:09.375Z,70.83
2018-01-19T23:07:38.163Z,87.57
2018-01-19T23:10:06.555Z,70.03
2018-01-19T23:12:35.746Z,71.33
2018-01-19T23:15:04.235Z,76.10
2018-01-19T23:17:33.039Z,59.17
2018-01-19T23:20:01.325Z,91.57
2018-01-19T23:22:30.288Z,71.73
2018-01-19T23:24:58.568Z,72.40
2018-01-19T23:27:26.876Z,77.33
2018-01-19T23:29:55.588Z,64.63
2018-01-19T23:32:24.706Z,77.63
2018-01-19T23:34:53.463Z,81.97
2018-01-19T23:37:22.551Z,86.07
2018-01-19T23:39:52.479Z,73.87
2018-01-19T23:42:21.548Z,66.40
2018-01-19T23:44:50.186Z,87.50
2018-01-19T23:47:18.506Z,76.90
2018-01-19T23:49:47.006Z,80.63
2018-01-19T23:52:15.319Z,69.87
2018-01-19T23:54:43.620Z,68.57
2018-01-19T23:57:14.855Z,69.90
2018-01-19T23:59:43.122Z,70.10
